CST,Max TemperatureF,Mean TemperatureF,Min TemperatureF,Max Dew PointF,MeanDew PointF,Min DewpointF,Max Humidity, Mean Humidity, Min Humidity, Max Sea Level PressureIn, Mean Sea Level PressureIn, Min Sea Level PressureIn, Max VisibilityMiles, Mean VisibilityMiles, Min VisibilityMiles, Max Wind SpeedMPH, Mean Wind SpeedMPH, Max Gust SpeedMPH,PrecipitationIn, CloudCover, Events, WindDirDegrees
2013-11-1,60,48,36,39,34,31,79,59,39,30.11,29.89,29.68,10,10,10,37,16,49,T,3,Rain,303
2013-11-2,61,46,30,34,28,24,85,55,25,30.25,30.16,30.02,10,10,10,17,9,24,0.00,0,,247
2013-11-3,61,51,40,37,33,29,65,51,36,29.99,29.76,29.62,10,10,10,31,20,44,0.00,0,,167
2013-11-4,55,43,30,37,33,29,85,63,41,30.16,29.98,29.68,10,10,10,23,9,31,0.00,1,,6
2013-11-5,42,35,28,37,33,27,100,81,62,30.17,30.04,29.90,10,8,2,24,14,30,0.90,8,Rain-Snow,19
2013-11-6,45,38,30,34,30,28,92,75,58,30.34,30.26,30.14,10,10,10,21,8,24,0.00,5,,272
2013-11-7,52,41,30,31,28,23,92,64,36,30.48,30.38,30.21,10,10,10,15,8,20,0.00,0,,273
2013-11-8,61,48,35,40,35,31,85,64,43,30.19,29.91,29.74,10,10,10,22,11,28,0.00,0,,204
2013-11-9,61,47,32,37,32,30,92,62,32,30.38,30.20,30.01,10,10,10,14,6,18,0.00,1,,332
2013-11-10,52,40,28,43,33,27,92,71,50,30.42,30.30,30.14,10,10,10,21,7,24,0.00,2,,179
2013-11-11,47,33,19,44,24,9,100,75,50,30.84,30.45,30.12,10,9,3,24,15,32,T,3,Snow,8
2013-11-12,39,25,11,15,11,7,92,61,29,30.94,30.78,30.56,10,10,10,16,8,22,0.00,0,,213
2013-11-13,58,43,28,37,28,15,75,57,39,30.52,30.20,29.95,10,10,10,26,14,32,0.00,0,,200
2013-11-14,62,47,32,40,35,30,89,66,42,29.99,29.94,29.91,10,10,10,21,7,25,0.00,0,,262
2013-11-15,57,45,32,37,35,31,92,68,43,29.90,29.73,29.52,10,10,10,18,9,24,0.00,0,,180
2013-11-16,64,51,37,41,32,18,96,57,17,29.49,29.38,29.31,10,10,10,21,8,25,0.00,0,,222
2013-11-17,55,42,29,43,32,25,100,69,38,30.13,29.74,29.36,10,10,6,35,15,40,0.05,2,Rain,293
2013-11-18,60,42,24,25,22,17,88,54,19,30.27,30.18,30.13,10,10,10,18,9,24,0.00,0,,218
2013-11-19,61,47,33,34,28,21,69,50,31,30.12,29.92,29.78,10,10,10,29,17,37,0.00,0,,180
2013-11-20,63,50,36,38,32,28,85,61,36,30.02,29.80,29.71,10,10,10,21,9,25,0.00,0,,252
2013-11-21,37,28,18,28,15,10,84,70,55,30.71,30.43,30.06,10,7,2,36,23,44,0.02,7,Rain-Snow,352
2013-11-22,35,23,11,15,7,1,77,50,23,30.79,30.72,30.67,10,10,10,21,9,25,0.00,0,,298
2013-11-23,26,21,15,14,9,4,80,60,40,30.93,30.83,30.74,10,10,10,14,7,16,0.00,0,,44
2013-11-24,38,27,15,21,15,6,75,61,47,30.73,30.41,30.14,10,10,10,25,15,35,0.00,3,,190
2013-11-25,48,36,23,27,22,19,85,60,34,30.30,30.20,30.10,10,10,10,20,12,24,0.00,3,,274
2013-11-26,34,23,12,21,13,3,88,59,29,30.51,30.43,30.29,10,10,10,28,12,35,0.00,1,,329
2013-11-27,43,26,8,23,14,5,84,59,33,30.50,30.26,30.07,10,10,10,24,10,31,0.00,0,,220
2013-11-28,35,28,20,25,19,15,88,70,51,30.50,30.39,30.15,10,10,9,22,9,28,0.00,3,,24
2013-11-29,47,33,19,29,22,14,85,65,45,30.49,30.29,30.14,10,10,10,17,7,21,0.00,0,,175
2013-11-30,60,42,23,29,24,21,92,59,26,30.19,30.14,30.09,10,10,9,8,4,10,0.00,0,,307